Tiempo atmosférico en la estación meteorológica de Zamora, Zamora (656 m.)



Fecha
DESCASC
Temp. máxima en grados centígrados (hora)
DESCASC
Temp. mínima en grados centígrados (hora)
DESCASC
Temp. media en grados centígrados
DESCASC
Racha de viento máxima en m/sg (hora)
DESCASC
Velocidad máxima media en intervalos de 10 minutos(hora)
DESCASC
Precipitaciones diarias en mm
DESCASC
Precipitaciones de 00:00 a 06:00 en mm
DESCASC
Precipitaciones de 06:00 a 12:00 en mm
DESCASC
Precipitaciones de 12:00 a 18:00 en mm
DESCASC
Precipitaciones de 18:00 a 24:00 en mm
DESCASC
17-09-2020 30.2 (16:40) 18.3 (23:59) 24.3 8.89 (23:40) 3.89 (19:00) 0.4 0.2 0 0 0.2
15-09-2020 29.7 (17:00) 15.7 (08:50) 22.7 6.39 (17:30) 3.61 (17:30) 0.2 0.2 0 0 0
14-09-2020 30.8 (17:20) 17.2 (08:00) 24 8.33 (18:20) 3.61 (18:20) 0 0 0 0 0
13-09-2020 34.6 (17:10) 13.4 (00:00) 24 4.44 (20:20) 2.5 (10:20) 0 0 0 0 0
12-09-2020 33.4 (17:20) 13.6 (07:50) 23.5 6.11 (15:40) 3.33 (10:30) 0 0 0 0 0
11-09-2020 31.7 (16:30) 13.4 (00:00) 22.6 8.61 (14:20) 3.61 (11:20) 0 0 0 0 0
10-09-2020 30.7 (17:10) 12.5 (00:00) 21.6 5.83 (18:20) 3.06 (10:50) 0 0 0 0 0
09-09-2020 30.4 (17:00) 9.7 (08:10) 20 5 (10:10) 2.78 (10:30) 0 0 0 0 0
08-09-2020 28 (17:50) 9.7 (00:00) 18.8 8.61 (10:20) 5.56 (10:30) 0 0 0 0 0
07-09-2020 24.5 (17:30) 10.3 (07:30) 17.4 10.56 (15:20) 6.11 (16:40) 0 0 0 0 0
06-09-2020 29.3 (17:10) 14.2 (00:00) 21.7 8.06 (11:00) 4.72 (10:10) 0 0 0 0 0
05-09-2020 33.9 (18:10) 15.7 (00:00) 24.8 9.44 (20:30) 5.28 (20:30) 0 0 0 0 0
04-09-2020 34.8 (17:50) 12.5 (00:00) 23.6 6.11 (15:10) 2.5 (17:10) 0 0 0 0 0
03-09-2020 32.4 (18:00) 11.6 (00:00) 22 4.72 (11:20) 2.5 (14:20) 0 0 0 0 0
02-09-2020 29.3 (18:00) 11.6 (00:00) 20.4 7.78 (19:10) 4.17 (01:00) 0 0 0 0 0
01-09-2020 29.1 (16:50) 14.2 (00:00) 21.7 6.67 (23:50) 3.33 (23:59) 0 0 0 0 0
31-08-2020 26.2 (18:40) 7.6 (00:00) 16.9 5.28 (09:50) 3.33 (09:50) 0 0 0 0 0
30-08-2020 22.4 (17:00) 9.1 (00:00) 15.8 6.67 (12:20) 3.33 (12:10) 0 0 0 0 0
29-08-2020 22.7 (18:10) 10.5 (00:00) 16.6 10.83 (18:10) 7.22 (19:00) 0 0 0 0 0
28-08-2020 28.1 (17:10) 16.2 (00:00) 22.2 8.61 (19:40) 5 (21:50) 0 0 0 0 0
27-08-2020 35.4 (17:30) 18.3 (00:00) 26.9 10 (15:30) 2.78 (10:40) 0 0 0 0 0
26-08-2020 35.4 (18:30) 16 (00:00) 25.7 5.83 (10:40) 3.33 (10:10) 0 0 0 0 0
25-08-2020 35.4 (18:00) 14.6 (00:00) 25 6.94 (16:30) 3.06 (15:20) 0 0 0 0 0
24-08-2020 31.6 (18:20) 13.6 (07:40) 22.6 6.11 (10:40) 3.61 (10:20) 0 0 0 0 0
23-08-2020 30.3 (17:50) 12.7 (00:00) 21.5 7.22 (09:40) 3.89 (09:30) 0 0 0 0 0
22-08-2020 29.1 (18:20) 12.2 (00:00) 20.7 4.72 (16:50) 2.78 (18:00) 0 0 0 0 0
21-08-2020 26.8 (17:50) 17.7 (09:00) 22.3 9.17 (17:00) 3.61 (16:20) 0.2 0.2 0 0 0

Gráficas

Temp. máximas Temp. mínimas Temp. medias Precipitaciones Rachas de viento máximas Velocidades máximas media en intervalos de 10 minutos

Datos horarios

Fecha y hora oficial Temperatura (ºC) Velocidad del viento (km/h) Dirección del viento Racha (km/h) Dirección de racha Precipitación (mm) Presión (hPa) Tendencia (hPa) Humedad (%)
2020-09-19 23:00:00 16.2 5 Sudoeste 14 Sudoeste 0 941.5 1.1 89
2020-09-19 22:00:00 16.1 5 Sudoeste 18 Oeste 0 941.4 1.6 86
2020-09-19 21:00:00 16.8 6 Sudoeste 22 Oeste 0.2 940.9 1.6 85
2020-09-19 20:00:00 17.8 9 Sudoeste 30 Oeste 0 940.4 1.4 71
2020-09-19 19:00:00 19.3 13 Oeste 32 Oeste 0 939.8 0.9 62
2020-09-19 18:00:00 20.7 16 Oeste 35 Oeste 0 939.3 0 50
2020-09-19 17:00:00 21.7 15 Oeste 32 Oeste 0 939 -0.6 49
2020-09-19 16:00:00 21.1 13 Oeste 29 Oeste 0 938.9 -- 57
2020-09-19 15:00:00 19 7 Oeste 27 Sudoeste 0 939.3 -- 76
2020-09-19 14:00:00 19.3 13 Oeste 27 Oeste 0 939.6 -- 73
2020-09-19 13:00:00 16.7 7 Oeste 22 Oeste 2.2 939.7 -- 87
2020-09-19 12:00:00 16.4 5 Noroeste 19 Sudoeste 0 939.3 -- 91
2020-09-19 11:00:00 15.7 6 Oeste 18 Oeste 0 938.9 -- 91
2020-09-19 10:00:00 14.7 6 Oeste 20 Norte 2.8 938 -- 96
2020-09-19 09:00:00 14.4 8 Noroeste 27 Norte 1.8 936.5 -- 97
2020-09-19 08:00:00 14.8 6 Oeste 17 Oeste 2.4 934.9 -- 96
2020-09-19 07:00:00 14.6 5 Sudeste 21 Este 2.8 933.9 -- 97
2020-09-19 06:00:00 14.4 9 Este 16 Sudeste 2.8 934.2 -- 96
2020-09-19 05:00:00 14.7 7 Este 13 Este 1 934.8 -- 94
2020-09-19 04:00:00 14.7 6 Este 13 Sudeste 0 935.5 -- 93
2020-09-19 03:00:00 14.7 5 Este 14 Sudeste 0.8 935.8 -- 91
2020-09-19 02:00:00 15.3 8 Sudeste 15 Sudeste 0 936.1 -- 85
2020-09-19 01:00:00 15.4 4 Sudeste 14 Sudeste 0 936.2 -- 82
2020-09-19 00:00:00 15.6 6 Este 12 Sudeste 0 936.2 -- 76
2020-09-18 23:00:00 15.9 7 Sudeste 15 Sudeste 0 936.3 -- 71
2020-09-18 22:00:00 16.7 10 Sudeste 18 Sudeste 0 936 -- 70
2020-09-18 21:00:00 17.4 6 Este 16 Sudeste 0 935.6 -- 74
2020-09-18 20:00:00 18.7 12 Sudeste 33 Sur 0 935.5 -- 63
2020-09-18 19:00:00 21.9 11 Sur 24 Sur 0 935.1 -- 47
2020-09-18 18:00:00 22.5 11 Sudeste 22 Sur 0 934.7 -- 47
2020-09-18 17:00:00 23.9 8 Sur 18 Sudoeste 0 934.6 -- 38
2020-09-18 16:00:00 23.7 8 Sur 21 Sur 0 935.2 -- 41
2020-09-18 15:00:00 23.9 8 Sur 21 Sur 0 935.9 -- 43
2020-09-18 14:00:00 23.4 10 Sudeste 25 Sur 0 936.2 -- 45
2020-09-18 13:00:00 22 9 Sur 23 Sudoeste 0 936.6 -- 51
2020-09-18 12:00:00 20.4 8 Sur 21 Sudoeste 0 937 -- 62
2020-09-18 11:00:00 18.1 8 Sur 18 Sur 0 936.8 -- 75
2020-09-18 10:00:00 16.9 4 Sudeste 9 Sudeste 0 936.2 -- 89
2020-09-18 09:00:00 15.8 3 Sur 9 Oeste 0 936.1 -- 90
2020-09-18 08:00:00 15.8 3 Sur 15 Sur 0.8 935.1 -- 90
2020-09-18 07:00:00 16.4 7 Sur 19 Este 0.8 935.5 -- 89
2020-09-18 06:00:00 16.7 3 Sudeste 15 Sudeste 0 934.9 -- 90
2020-09-18 05:00:00 16.4 7 Este 11 Sudeste 0.4 934.8 -- 92
2020-09-18 04:00:00 16.4 6 Sudeste 13 Sudeste 0 935.5 -- 87
2020-09-18 03:00:00 16.8 7 Sudeste 13 Sudeste 0 935.6 -- 84
2020-09-18 02:00:00 16.7 5 Sudeste 12 Sudeste 0 936.3 -- 84
2020-09-18 01:00:00 17.1 5 Sudeste 18 Sudeste 0 935.9 -- 79
2020-09-18 00:00:00 18.3 11 Sur 32 Sur 0.2 937.1 -- 70
2020-09-17 23:00:00 20.6 6 Sur 18 Sudoeste 0 936.1 -- 54
2020-09-17 22:00:00 22 6 Sudoeste 19 Oeste 0 935.8 -- 53
2020-09-17 21:00:00 23.1 5 Sudoeste 23 Sudoeste 0 935.2 -- 54
2020-09-17 20:00:00 24.6 9 Sudoeste 28 Sudoeste 0 935.2 -- 49
2020-09-17 19:00:00 26.6 14 Sur 30 Sudoeste 0 934.8 -- 39
2020-09-17 18:00:00 27.5 12 Sur 27 Sur 0 934.9 -- 34
2020-09-17 17:00:00 29.5 9 Sudeste 24 Sudeste 0 935 -- 31
2020-09-17 16:00:00 29.1 10 Sur 27 Sur 0 935.7 -- 33
2020-09-17 15:00:00 28.1 12 Sudeste 22 Sudeste 0 936.7 -- 37
2020-09-17 14:00:00 26.4 9 Sudeste 21 Este 0 937.6 -- 41
2020-09-17 13:00:00 26.4 11 Sudeste 20 Este 0 938 -- 43
2020-09-17 12:00:00 25 10 Este 19 Sudeste 0 938.5 -- 50
2020-09-17 11:00:00 21.3 8 Sudeste 17 Sudeste 0 938.8 -- 62
2020-09-17 10:00:00 19.8 5 Este 9 Este 0 939 -- 71
2020-09-17 09:00:00 18.6 7 Este 14 Este 0 939 -- 75
2020-09-17 08:00:00 18.7 7 Este 21 Este 0 938.7 -- 74
2020-09-17 07:00:00 19.1 7 Este 19 Este 0 938.6 -- 69
2020-09-17 06:00:00 19.2 4 Nordeste 18 Sudeste 0 938.7 -- 68
2020-09-17 05:00:00 19.6 9 Este 18 Este 0.2 939 -- 63
2020-09-17 04:00:00 21.1 8 Sudeste 17 Este 0 939.3 -- 52
2020-09-17 03:00:00 21.8 7 Sudeste 15 Este 0 939.7 -- 48
2020-09-17 02:00:00 21.7 5 Sur 15 Sur 0 939.9 -- 44
2020-09-17 01:00:00 22.2 9 Sudeste 19 Sudeste 0 940.5 -- 44
2020-09-17 00:00:00 22.2 4 Sudoeste 8 Nordeste 0 940 -- 46
2020-09-16 23:00:00 22.4 6 Nordeste 15 Nordeste 0 939.9 -- 46
2020-09-16 22:00:00 23.6 5 Norte 10 Norte 0 940 -- 41
2020-09-16 21:00:00 24.9 4 Nordeste 10 Norte 0 939.8 -- 39
2020-09-16 20:00:00 26.7 6 Norte 12 Nordeste 0 939.8 -- 32
2020-09-16 19:00:00 27.6 6 Nordeste 13 Este 0 940 -- 31
2020-09-16 18:00:00 28 9 Este 19 Este 0 940.4 -- 31
2020-09-16 17:00:00 29.4 9 Este 18 Este 0 940.9 -- 33
2020-09-16 16:00:00 28.9 10 Este 21 Nordeste 0 941.8 -- 34
2020-09-16 15:00:00 28.4 9 Este 16 Este 0 942.7 -- 35
2020-09-16 14:00:00 26 6 Este 14 Este 0 943.5 -- 43
2020-09-16 13:00:00 22.7 6 Nordeste 13 Nordeste 0 944.2 -- 53
2020-09-16 12:00:00 20.7 7 Este 14 Este 0 944.8 -- 57
2020-09-16 11:00:00 17.2 8 Nordeste 13 Nordeste 0 945 -- 67
2020-09-16 10:00:00 14.4 6 Nordeste 11 Norte 0 945 -- 73
2020-09-16 09:00:00 12.6 4 Norte 8 Norte 0 944.8 -- 77
2020-09-16 08:00:00 12.5 0 Calma 5 Noroeste 0 944.6 -- 75
2020-09-16 07:00:00 12.7 3 Noroeste 6 Norte 0 944.5 -- 73
2020-09-16 06:00:00 13.6 3 Norte 5 Nordeste 0 944.6 -- 72
2020-09-16 05:00:00 14.4 0 Calma 5 Noroeste 0 944.8 -- 71
2020-09-16 04:00:00 15.1 0 Calma 4 Norte 0 945 -- 71
2020-09-16 03:00:00 16.9 0 Calma 6 Oeste 0 945 -- 58
2020-09-16 02:00:00 18.2 0 Calma 6 Sudoeste 0 945 -- 54
2020-09-16 01:00:00 19.5 3 Sur 7 Oeste 0 945 -- 50
2020-09-16 00:00:00 21.2 4 Oeste 17 Oeste 0 944.8 -- 43
2020-09-15 23:00:00 22.1 4 Sudoeste 16 Oeste 0 944.8 -- 40
2020-09-15 22:00:00 23.6 4 Sudoeste 17 Oeste 0 944.2 -- 36
2020-09-15 21:00:00 25.1 6 Oeste 17 Oeste 0 943.7 -- 32
2020-09-15 20:00:00 26.5 6 Oeste 22 Sudoeste 0 943.4 -- 30
2020-09-15 19:00:00 27.9 9 Oeste 21 Sudoeste 0 943.3 -- 27
2020-09-15 18:00:00 29 7 Sudoeste 23 Oeste 0 943.3 -- 26
2020-09-15 17:00:00 29.6 8 Sudoeste 21 Sudoeste 0 943.6 -- 26
2020-09-15 16:00:00 28.9 4 Sur 18 Sudoeste 0 944.2 -- 32
2020-09-15 15:00:00 27.8 9 Sur 21 Sur 0 944.7 -- 35
2020-09-15 14:00:00 27.4 10 Sur 22 Sur 0 945.1 -- 37
2020-09-15 13:00:00 25.5 6 Sur 14 Sudeste 0 945.6 -- 52
2020-09-15 12:00:00 23.6 8 Sudeste 14 Sudeste 0 946.1 -- 61
2020-09-15 11:00:00 20.7 3 Este 8 Sur 0 946.2 -- 68
2020-09-15 10:00:00 17.7 3 Noroeste 9 Oeste 0 945.8 -- 77
2020-09-15 09:00:00 15.9 3 Norte 6 Sur 0 945.7 -- 87
2020-09-15 08:00:00 16.2 3 Sudeste 6 Sudeste 0 945.2 -- 84
2020-09-15 07:00:00 17.7 3 Norte 8 Oeste 0 944.8 -- 78
2020-09-15 06:00:00 17.7 3 Noroeste 11 Oeste 0 944.7 -- 76
2020-09-15 05:00:00 17.7 4 Sur 8 Sur 0 944.6 -- 77
2020-09-15 04:00:00 18.1 5 Sur 9 Sur 0 944.6 -- 75
2020-09-15 03:00:00 19.7 4 Sudeste 9 Sudoeste 0 944.7 -- 68
2020-09-15 02:00:00 20.3 5 Sur 21 Sur 0.2 944.8 -- 64
2020-09-15 01:00:00 21.9 7 Sur 16 Sur 0 944.6 -- 57
2020-09-15 00:00:00 23.4 5 Oeste 21 Sudeste 0 944.2 -- 47
2020-09-14 23:00:00 24.1 5 Oeste 16 Oeste 0 943.1 -- 41
2020-09-14 22:00:00 24.9 5 Oeste 17 Oeste 0 942.9 -- 37
2020-09-14 21:00:00 26.3 7 Sudoeste 21 Oeste 0 942.5 -- 36
2020-09-14 20:00:00 28 9 Sudoeste 26 Sudoeste 0 942.1 -- 33
2020-09-14 19:00:00 29.3 9 Sudoeste 30 Sudoeste 0 942 -- 31
2020-09-14 18:00:00 30.7 6 Sudoeste 29 Sudoeste 0 942.3 -- 29
2020-09-14 17:00:00 29.8 9 Sur 22 Sudoeste 0 942.8 -- 37
2020-09-14 16:00:00 30.2 9 Sudeste 22 Sur 0 943.6 -- 32
2020-09-14 15:00:00 29.6 9 Sudeste 19 Sudeste 0 944.3 -- 32
2020-09-14 14:00:00 28.1 8 Sur 16 Sur 0 945.1 -- 38
2020-09-14 13:00:00 24.7 4 Norte 7 Norte 0 945.6 -- 51
2020-09-14 12:00:00 22.2 2 Sudeste 6 Sudeste 0 945.9 -- 56
2020-09-14 11:00:00 20.3 4 Sudeste 8 Sur 0 945.7 -- 58
2020-09-14 10:00:00 18.6 0 Calma 5 Norte 0 945.5 -- 61
2020-09-14 09:00:00 17.7 3 Nordeste 5 Este 0 945.1 -- 64
2020-09-14 08:00:00 17.2 4 Este 5 Este 0 944.7 -- 62
2020-09-14 07:00:00 17.7 3 Noroeste 5 Nordeste 0 944.4 -- 55
2020-09-14 06:00:00 18.7 0 Calma 9 Sur 0 944 -- 53
2020-09-14 05:00:00 19.5 3 Sur 26 Oeste 0 944.1 -- 49
2020-09-14 04:00:00 19.9 4 Sudeste 9 Sudeste 0 944 -- 48
2020-09-14 03:00:00 20.8 6 Este 11 Sudeste 0 944.2 -- 46
2020-09-14 02:00:00 21.1 3 Este 10 Sudeste 0 944.5 -- 45
2020-09-14 01:00:00 21.8 3 Sudeste 7 Este 0 944.6 -- 43
2020-09-14 00:00:00 23.8 2 Sur 6 Sudoeste 0 944.7 -- 37
2020-09-13 23:00:00 25.1 2 Sudoeste 5 Sur 0 944.5 -- 34
2020-09-13 22:00:00 27.3 2 Sur 6 Oeste 0 944.1 -- 29
2020-09-13 21:00:00 29.4 3 Oeste 16 Sudoeste 0 943.5 -- 24
2020-09-13 20:00:00 31.1 5 Sur 12 Este 0 943.3 -- 24
2020-09-13 19:00:00 32.6 5 Sudeste 15 Sudeste 0 943.2 -- 23
2020-09-13 18:00:00 34.1 6 Este 15 Sudeste 0 943.5 -- 21
2020-09-13 17:00:00 34.3 7 Este 14 Sudeste 0 944 -- 21
2020-09-13 16:00:00 33.5 5 Sudeste 9 Sudeste 0 944.5 -- 21
2020-09-13 15:00:00 31.6 4 Sur 14 Norte 0 945 -- 24
2020-09-13 14:00:00 29.2 5 Nordeste 14 Este 0 945.6 -- 29
2020-09-13 13:00:00 26.6 7 Nordeste 13 Este 0 946 -- 33
2020-09-13 12:00:00 23.5 6 Este 12 Nordeste 0 946.6 -- 40
2020-09-13 11:00:00 20 5 Nordeste 15 Este 0 946.6 -- 46
2020-09-13 10:00:00 17 7 Nordeste 14 Nordeste 0 946.2 -- 52
2020-09-13 09:00:00 13.9 6 Nordeste 12 Nordeste 0 946 -- 63
2020-09-13 08:00:00 13.6 4 Nordeste 10 Nordeste 0 945.8 -- 62
2020-09-13 07:00:00 13.8 6 Norte 11 Norte 0 945.2 -- 58
2020-09-13 06:00:00 14.4 4 Nordeste 9 Norte 0 945.1 -- 53
2020-09-13 05:00:00 15.8 6 Norte 13 Norte 0 944.9 -- 47
2020-09-13 04:00:00 16.6 6 Norte 11 Norte 0 944.8 -- 41
2020-09-13 03:00:00 18.2 5 Norte 10 Norte 0 944.9 -- 34
2020-09-13 02:00:00 19.8 4 Nordeste 6 Nordeste 0 944.8 -- 33
2020-09-13 01:00:00 20.6 3 Nordeste 5 Sur 0 945 -- 32
2020-09-13 00:00:00 21.5 2 Este 8 Nordeste 0 944.8 -- 31
2020-09-12 23:00:00 22.9 0 Calma 10 Nordeste 0 944.5 -- 28
2020-09-12 22:00:00 24.3 4 Nordeste 8 Nordeste 0 943.7 -- 28
2020-09-12 21:00:00 26.7 4 Nordeste 12 Este 0 943 -- 27
2020-09-12 20:00:00 29.4 8 Nordeste 19 Nordeste 0 942.7 -- 22
2020-09-12 19:00:00 30.7 6 Nordeste 18 Sudeste 0 942.5 -- 21
2020-09-12 18:00:00 32.6 11 Este 19 Sur 0 942.5 -- 21
2020-09-12 17:00:00 33.1 5 Este 17 Este 0 942.5 -- 19
2020-09-12 16:00:00 32.6 6 Este 22 Este 0 943 -- 21
2020-09-12 15:00:00 31.3 10 Sudeste 20 Sudeste 0 943.6 -- 25
2020-09-12 14:00:00 29.6 9 Sudeste 16 Este 0 944 -- 26
2020-09-12 13:00:00 26.4 7 Nordeste 17 Este 0 944.3 -- 39
2020-09-12 12:00:00 23.2 8 Nordeste 16 Norte 0 944.4 -- 48
2020-09-12 11:00:00 19.9 9 Nordeste 19 Nordeste 0 944.3 -- 61
2020-09-12 10:00:00 16.7 11 Nordeste 17 Nordeste 0 943.9 -- 73
2020-09-12 09:00:00 14.4 6 Este 10 Nordeste 0 943.8 -- 81
2020-09-12 08:00:00 13.7 4 Nordeste 10 Nordeste 0 943 -- 80
2020-09-12 07:00:00 14 2 Nordeste 9 Nordeste 0 942.5 -- 72
2020-09-12 06:00:00 14.5 4 Norte 10 Norte 0 942.2 -- 64
2020-09-12 05:00:00 15.6 5 Norte 10 Norte 0 942.1 -- 55
2020-09-12 04:00:00 16.2 4 Norte 8 Norte 0 941.8 -- 49
2020-09-12 03:00:00 17.6 4 Nordeste 8 Norte 0 941.7 -- 44
2020-09-12 02:00:00 18.8 3 Noroeste 7 Norte 0 941.5 -- 43
2020-09-12 01:00:00 20.4 4 Nordeste 7 Nordeste 0 941.1 -- 42
2020-09-12 00:00:00 21.7 4 Nordeste 6 Nordeste 0 940.8 -- 38
2020-09-11 23:00:00 23.1 3 Nordeste 5 Norte 0 940.4 -- 34
2020-09-11 22:00:00 24.8 2 Noroeste 4 Norte 0 940.1 -- 31
2020-09-11 21:00:00 26.6 3 Norte 5 Norte 0 939.5 -- 28
2020-09-11 20:00:00 28.4 5 Norte 15 Nordeste 0 939.4 -- 25
2020-09-11 19:00:00 30.3 3 Este 9 Sudoeste 0 939.4 -- 24
2020-09-11 18:00:00 30.6 3 Este 13 Sudeste 0 939.6 -- 23
2020-09-11 17:00:00 31.2 5 Sudoeste 16 Sudeste 0 940.1 -- 23
2020-09-11 16:00:00 30.9 6 Nordeste 14 Este 0 940.4 -- 27
2020-09-11 15:00:00 29.6 6 Este 31 Este 0 940.9 -- 30
2020-09-11 14:00:00 27.8 5 Nordeste 15 Nordeste 0 941.5 -- 34
2020-09-11 13:00:00 25.1 6 Nordeste 17 Nordeste 0 942.1 -- 40
2020-09-11 12:00:00 22.3 8 Nordeste 20 Nordeste 0 942.5 -- 48
2020-09-11 11:00:00 19.5 12 Nordeste 24 Nordeste 0 942.5 -- 58
2020-09-11 10:00:00 16.9 10 Nordeste 19 Nordeste 0 942.4 -- 67
2020-09-11 09:00:00 13.9 6 Nordeste 13 Nordeste 0 942.3 -- 77
2020-09-11 08:00:00 13.4 5 Nordeste 10 Nordeste 0 942.1 -- 76
2020-09-11 07:00:00 13.6 5 Norte 8 Norte 0 941.9 -- 74
2020-09-11 06:00:00 14 4 Nordeste 10 Nordeste 0 941.8 -- 69
2020-09-11 05:00:00 15 5 Norte 9 Norte 0 941.9 -- 63
2020-09-11 04:00:00 15.7 7 Norte 9 Norte 0 942 -- 55
2020-09-11 03:00:00 16.4 5 Nordeste 9 Este 0 942 -- 51
2020-09-11 02:00:00 17.6 3 Norte 15 Nordeste 0 942.2 -- 43
2020-09-11 01:00:00 19.3 4 Nordeste 5 Nordeste 0 942.1 -- 40
2020-09-11 00:00:00 20.6 2 Este 3 Este 0 942.1 -- 38
2020-09-10 23:00:00 22.1 0 Calma 4 Norte 0 942.1 -- 36
2020-09-10 22:00:00 23.8 0 Calma 9 Este 0 941.8 -- 32
2020-09-10 21:00:00 25.9 3 Este 9 Este 0 941.5 -- 28
2020-09-10 20:00:00 27.6 5 Nordeste 13 Nordeste 0 941.8 -- 26
2020-09-10 19:00:00 29.4 9 Este 21 Este 0 942 -- 25
2020-09-10 18:00:00 30.3 9 Nordeste 19 Este 0 942.4 -- 22
2020-09-10 17:00:00 30.5 6 Norte 17 Este 0 942.9 -- 22
2020-09-10 16:00:00 30.1 8 Este 15 Nordeste 0 943.6 -- 25
2020-09-10 15:00:00 28.3 6 Nordeste 15 Nordeste 0 944.4 -- 30
2020-09-10 14:00:00 -- -- -- -- -- -- -- -- --
2020-09-10 13:00:00 24.9 6 Nordeste 16 Norte 0 946 -- 41
2020-09-10 12:00:00 22.4 6 Este 16 Nordeste 0 946.5 -- 48
2020-09-10 11:00:00 19.2 10 Nordeste 19 Nordeste 0 946.9 -- 57
2020-09-10 10:00:00 16 7 Nordeste 14 Nordeste 0 946.7 -- 68
2020-09-10 09:00:00 13.1 6 Nordeste 14 Nordeste 0 946.6 -- 72
2020-09-10 08:00:00 12.5 5 Nordeste 10 Nordeste 0 945.9 -- 75
2020-09-10 07:00:00 12.9 4 Nordeste 9 Nordeste 0 945.6 -- 75
2020-09-10 06:00:00 13.4 3 Nordeste 9 Norte 0 945.6 -- 72
2020-09-10 05:00:00 14.4 4 Nordeste 10 Norte 0 945.9 -- 67
2020-09-10 04:00:00 15.4 5 Norte 12 Norte 0 946.1 -- 62
2020-09-10 03:00:00 16.5 4 Nordeste 8 Norte 0 946.3 -- 58
2020-09-10 02:00:00 17.5 2 Norte 8 Norte 0 946.2 -- 49
2020-09-10 01:00:00 18.2 5 Norte 13 Nordeste 0 946 -- 38
2020-09-10 00:00:00 19.8 2 Oeste 5 Oeste 0 945.6 -- 35
2020-09-09 23:00:00 21.2 4 Este 8 Este 0 945.4 -- 33
2020-09-09 22:00:00 23.3 3 Nordeste 5 Norte 0 945.1 -- 27
2020-09-09 21:00:00 25.6 0 Calma 6 Nordeste 0 944.5 -- 24
2020-09-09 20:00:00 27.6 4 Norte 10 Nordeste 0 944.4 -- 21
2020-09-09 19:00:00 29.7 3 Sudoeste 15 Nordeste 0 944.4 -- 19
2020-09-09 18:00:00 30.1 5 Noroeste 16 Este 0 944.6 -- 18
2020-09-09 17:00:00 30.4 6 Sudeste 17 Sudeste 0 944.9 -- 18
2020-09-09 16:00:00 29.2 9 Sudeste 17 Este 0 945.2 -- 20
2020-09-09 15:00:00 28.6 6 Sur 14 Este 0 945.7 -- 22
2020-09-09 14:00:00 26.7 6 Sudeste 14 Sur 0 946.1 -- 27
2020-09-09 13:00:00 23.7 7 Norte 15 Norte 0 946.9 -- 30
2020-09-09 12:00:00 20.4 5 Nordeste 10 Norte 0 947.4 -- 38
2020-09-09 11:00:00 17.2 6 Nordeste 18 Este 0 947.7 -- 54
2020-09-09 10:00:00 14.4 7 Este 11 Este 0 947.2 -- 64
2020-09-09 09:00:00 10.4 4 Norte 11 Nordeste 0 946.9 -- 74
2020-09-09 08:00:00 9.8 4 Norte 10 Nordeste 0 946.7 -- 74
2020-09-09 07:00:00 10.4 5 Nordeste 10 Norte 0 946 -- 71
2020-09-09 06:00:00 11.2 5 Nordeste 11 Nordeste 0 946 -- 68
2020-09-09 05:00:00 11.8 5 Nordeste 10 Nordeste 0 945.7 -- 61
2020-09-09 04:00:00 13.6 4 Nordeste 14 Norte 0 945.7 -- 53
2020-09-09 03:00:00 14.1 5 Noroeste 8 Noroeste 0 945.6 -- 46
2020-09-09 02:00:00 14.6 4 Norte 7 Norte 0 945.5 -- 45
2020-09-09 01:00:00 16 2 Nordeste 7 Norte 0 945.8 -- 41
2020-09-09 00:00:00 17.8 4 Noroeste 13 Norte 0 945.8 -- 37
2020-09-08 23:00:00 19.5 4 Norte 7 Noroeste 0 945.7 -- 32
2020-09-08 22:00:00 21.5 4 Noroeste 6 Sudeste 0 945.2 -- 27
2020-09-08 21:00:00 23.7 3 Sur 8 Sudeste 0 944.8 -- 24
2020-09-08 20:00:00 25.8 5 Sudeste 13 Sur 0 944.6 -- 20
2020-09-08 19:00:00 27.3 7 Este 18 Sudeste 0 944.6 -- 19
2020-09-08 18:00:00 27.7 10 Sudeste 20 Sudeste 0 944.8 -- 17
2020-09-08 17:00:00 27.7 10 Sudeste 23 Sur 0 945.1 -- 20
2020-09-08 16:00:00 26.5 11 Sudeste 24 Este 0 945.7 -- 24
2020-09-08 15:00:00 25.2 12 Este 26 Este 0 946.3 -- 24
2020-09-08 14:00:00 22.6 9 Nordeste 25 Nordeste 0 946.7 -- 36
2020-09-08 13:00:00 20.6 13 Nordeste 26 Este 0 947.4 -- 39
2020-09-08 12:00:00 18.5 17 Nordeste 27 Nordeste 0 948.1 -- 51
2020-09-08 11:00:00 15.5 17 Nordeste 31 Nordeste 0 948.4 -- 62
2020-09-08 10:00:00 12.7 17 Nordeste 31 Nordeste 0 948.4 -- 73
2020-09-08 09:00:00 10.7 14 Nordeste 27 Nordeste 0 948.2 -- 79
2020-09-08 08:00:00 9.9 11 Nordeste 19 Nordeste 0 948.1 -- 80
2020-09-08 07:00:00 9.9 8 Nordeste 19 Nordeste 0 947.8 -- 79
2020-09-08 06:00:00 10.4 8 Nordeste 19 Nordeste 0 947.9 -- 76
2020-09-08 05:00:00 10.5 5 Nordeste 12 Nordeste 0 947.8 -- 71
2020-09-08 04:00:00 11.3 8 Nordeste 25 Nordeste 0 948.1 -- 67
2020-09-08 03:00:00 12.2 8 Nordeste 14 Nordeste 0 948.1 -- 62
2020-09-08 02:00:00 13.1 6 Este 20 Nordeste 0 948.3 -- 61
2020-09-08 01:00:00 14 10 Nordeste 20 Nordeste 0 948.4 -- 59
2020-09-08 00:00:00 15.1 7 Nordeste 17 Nordeste 0 948.1 -- 59
2020-09-07 23:00:00 16.4 8 Nordeste 22 Nordeste 0 947.8 -- 54
2020-09-07 22:00:00 17.8 14 Nordeste 23 Nordeste 0 946.9 -- 48
2020-09-07 21:00:00 19.4 14 Nordeste 31 Este 0 946.3 -- 43
2020-09-07 20:00:00 21.3 19 Nordeste 32 Nordeste 0 945.9 -- 38
2020-09-07 19:00:00 23 18 Nordeste 36 Nordeste 0 945.7 -- 34
2020-09-07 18:00:00 23.8 20 Nordeste 34 Este 0 945.5 -- 31
2020-09-07 17:00:00 24.2 16 Nordeste 36 Nordeste 0 945.7 -- 29
2020-09-07 16:00:00 23.5 17 Nordeste 38 Nordeste 0 945.9 -- 32
2020-09-07 15:00:00 22.8 18 Nordeste 36 Nordeste 0 946.4 -- 35
2020-09-07 14:00:00 22 18 Nordeste 33 Nordeste 0 946.8 -- 42
2020-09-07 13:00:00 20.8 17 Este 32 Este 0 947.1 -- 44
2020-09-07 12:00:00 19 18 Este 31 Nordeste 0 947.4 -- 47
2020-09-07 11:00:00 17.3 15 Este 30 Este 0 947.3 -- 52
2020-09-07 10:00:00 13.6 11 Nordeste 17 Nordeste 0 947.2 -- 74
2020-09-07 09:00:00 11.1 5 Nordeste 11 Nordeste 0 946.8 -- 82
2020-09-07 08:00:00 10.3 5 Nordeste 9 Nordeste 0 946.2 -- 82
2020-09-07 07:00:00 10.6 4 Nordeste 10 Nordeste 0 946 -- 79
2020-09-07 06:00:00 11.4 6 Nordeste 9 Nordeste 0 945.7 -- 76
2020-09-07 05:00:00 12.6 4 Nordeste 7 Nordeste 0 945.7 -- 71
2020-09-07 04:00:00 13.1 5 Nordeste 9 Nordeste 0 945.8 -- 70
2020-09-07 03:00:00 13.8 6 Nordeste 13 Este 0 945.9 -- 67
2020-09-07 02:00:00 14.5 7 Este 15 Este 0 946 -- 63
2020-09-07 01:00:00 15.4 7 Este 20 Este 0 945.6 -- 59
2020-09-07 00:00:00 16.7 11 Nordeste 21 Nordeste 0 944.9 -- 55
2020-09-06 23:00:00 17.7 11 Nordeste 22 Nordeste 0 944.4 -- 54
2020-09-06 22:00:00 20.1 14 Nordeste 24 Nordeste 0 943.3 -- 47
2020-09-06 21:00:00 23.4 13 Nordeste 23 Este 0 942.3 -- 38
2020-09-06 20:00:00 25.8 13 Nordeste 21 Nordeste 0 941.8 -- 37
2020-09-06 19:00:00 27.7 12 Nordeste 21 Nordeste 0 941.7 -- 33
2020-09-06 18:00:00 28.6 13 Nordeste 23 Nordeste 0 941.8 -- 31
2020-09-06 17:00:00 29.1 10 Nordeste 22 Nordeste 0 942 -- 32
2020-09-06 16:00:00 28.7 12 Nordeste 27 Nordeste 0 942.4 -- 33
2020-09-06 15:00:00 27.3 13 Nordeste 24 Nordeste 0 942.9 -- 39
2020-09-06 14:00:00 25.8 12 Nordeste 26 Este 0 943.3 -- 41
2020-09-06 13:00:00 23.9 14 Nordeste 27 Norte 0 943.8 -- 46
2020-09-06 12:00:00 21.8 13 Nordeste 28 Este 0 944.3 -- 54
2020-09-06 11:00:00 19.1 16 Nordeste 29 Nordeste 0 944.6 -- 63
2020-09-06 10:00:00 16.9 15 Nordeste 27 Nordeste 0 944.6 -- 72
2020-09-06 09:00:00 14.7 7 Nordeste 15 Nordeste 0 944.6 -- 80
2020-09-06 08:00:00 14.2 5 Nordeste 13 Nordeste 0 944.3 -- 80
2020-09-06 07:00:00 14.8 7 Nordeste 18 Nordeste 0 944.2 -- 78
2020-09-06 06:00:00 15.1 12 Nordeste 22 Nordeste 0 944.3 -- 76
2020-09-06 05:00:00 15.7 12 Nordeste 21 Este 0 944.6 -- 76
2020-09-06 04:00:00 16 12 Nordeste 22 Nordeste 0 944.6 -- 77
2020-09-06 03:00:00 16.5 10 Nordeste 24 Este 0 944.8 -- 75
2020-09-06 02:00:00 17.2 12 Nordeste 27 Nordeste 0 945 -- 72
2020-09-06 01:00:00 17.8 9 Nordeste 24 Nordeste 0 945.1 -- 69
2020-09-06 00:00:00 19 13 Nordeste 24 Nordeste 0 944.7 -- 64
2020-09-05 23:00:00 20.5 14 Nordeste 23 Este 0 943.6 -- 61
2020-09-05 22:00:00 23.4 13 Nordeste 31 Este 0 942.8 -- 52
2020-09-05 21:00:00 26.5 14 Este 34 Nordeste 0 941.9 -- 42
2020-09-05 20:00:00 30.3 13 Nordeste 26 Nordeste 0 941.7 -- 29
2020-09-05 19:00:00 32.6 10 Nordeste 19 Nordeste 0 941.8 -- 23
2020-09-05 18:00:00 33.8 6 Norte 16 Norte 0 942 -- 19
2020-09-05 17:00:00 33.7 11 Este 21 Nordeste 0 942.5 -- 24
2020-09-05 16:00:00 32.9 10 Nordeste 22 Nordeste 0 943.3 -- 23
2020-09-05 15:00:00 31.6 10 Este 21 Nordeste 0 944.2 -- 30
2020-09-05 14:00:00 30.2 11 Norte 22 Nordeste 0 944.6 -- 29
2020-09-05 13:00:00 27.6 10 Nordeste 18 Nordeste 0 945.2 -- 36
2020-09-05 12:00:00 25 9 Nordeste 17 Nordeste 0 945.7 -- 40
2020-09-05 11:00:00 22.2 9 Nordeste 16 Nordeste 0 945.7 -- 47
2020-09-05 10:00:00 19.2 9 Nordeste 17 Este 0 945.7 -- 55
2020-09-05 09:00:00 16 3 Norte 6 Nordeste 0 945.7 -- 69
2020-09-05 08:00:00 16 4 Este 11 Nordeste 0 945.3 -- 68
2020-09-05 07:00:00 16.9 5 Este 8 Este 0 944.9 -- 63
2020-09-05 06:00:00 18.2 5 Sur 12 Norte 0 944.8 -- 57
2020-09-05 05:00:00 19 8 Norte 13 Norte 0 944.8 -- 53
2020-09-05 04:00:00 19.8 6 Noroeste 13 Norte 0 945.2 -- 47
2020-09-05 03:00:00 20.4 4 Noroeste 11 Noroeste 0 945.7 -- 40
2020-09-05 02:00:00 21.5 3 Noroeste 7 Noroeste 0 945.5 -- 33
2020-09-05 01:00:00 22.7 2 Noroeste 22 Norte 0 945.4 -- 30
2020-09-05 00:00:00 23.7 5 Oeste 15 Oeste 0 945.3 -- 31
2020-09-04 23:00:00 24.9 4 Sur 11 Este 0 945 -- 30
2020-09-04 22:00:00 26.9 6 Noroeste 13 Noroeste 0 944.7 -- 24
2020-09-04 21:00:00 29.4 2 Noroeste 8 Sudeste 0 944.2 -- 23
2020-09-04 20:00:00 31.9 5 Sudeste 13 Este 0 944 -- 19
2020-09-04 19:00:00 33.9 6 Sudeste 14 Este 0 944.1 -- 17
2020-09-04 18:00:00 34.4 8 Sudeste 17 Este 0 944.4 -- 17
2020-09-04 17:00:00 34.3 9 Este 17 Este 0 944.7 -- 18
2020-09-04 16:00:00 33.8 8 Sudeste 22 Noroeste 0 945.5 -- 16
2020-09-04 15:00:00 32.9 8 Este 18 Sudeste 0 946.2 -- 19
2020-09-04 14:00:00 30.5 5 Este 12 Nordeste 0 946.9 -- 23
2020-09-04 13:00:00 27.5 4 Este 12 Este 0 947.6 -- 31
2020-09-04 12:00:00 23.8 4 Nordeste 12 Nordeste 0 947.9 -- 40
2020-09-04 11:00:00 20.8 4 Este 11 Nordeste 0 948.1 -- 48
2020-09-04 10:00:00 16.6 4 Nordeste 10 Norte 0 948 -- 62
2020-09-04 09:00:00 13.2 4 Norte 9 Nordeste 0 947.6 -- 73
2020-09-04 08:00:00 12.8 4 Nordeste 10 Nordeste 0 947.1 -- 74
2020-09-04 07:00:00 13.1 3 Nordeste 10 Este 0 946.7 -- 70
2020-09-04 06:00:00 13.7 3 Nordeste 9 Este 0 946.4 -- 67
2020-09-04 05:00:00 14.8 3 Nordeste 8 Norte 0 946.3 -- 55
2020-09-04 04:00:00 15.6 3 Norte 8 Noroeste 0 946.4 -- 48
2020-09-04 03:00:00 16.7 5 Nordeste 9 Nordeste 0 946.4 -- 42
2020-09-04 02:00:00 18.1 2 Nordeste 5 Norte 0 946.4 -- 47
2020-09-04 01:00:00 19.6 3 Noroeste 6 Noroeste 0 946.3 -- 37
2020-09-04 00:00:00 21 2 Norte 4 Nordeste 0 946.2 -- 34
2020-09-03 23:00:00 22.6 2 Sur 5 Sur 0 945.9 -- 32
2020-09-03 22:00:00 24.8 0 Calma 3 Noroeste 0 945.5 -- 25
2020-09-03 21:00:00 27.5 0 Calma 6 Este 0 945 -- 22
2020-09-03 20:00:00 29.8 4 Este 8 Sudeste 0 944.8 -- 19
2020-09-03 19:00:00 31.6 3 Este 13 Sudeste 0 944.8 -- 16
2020-09-03 18:00:00 32.4 6 Sudeste 13 Sudeste 0 944.9 -- 11
2020-09-03 17:00:00 31.5 8 Sudeste 15 Sur 0 945.1 -- 14
2020-09-03 16:00:00 30.7 8 Sudeste 17 Sudeste 0 945.5 -- 14
2020-09-03 15:00:00 29.5 6 Sudeste 16 Sudeste 0 946.2 -- 24
2020-09-03 14:00:00 28.3 7 Sudeste 14 Sudeste 0 946.6 -- 28
2020-09-03 13:00:00 25.3 4 Este 13 Este 0 946.8 -- 35
2020-09-03 12:00:00 21.7 8 Nordeste 17 Nordeste 0 947.1 -- 45
2020-09-03 11:00:00 18.6 9 Nordeste 14 Este 0 947 -- 61
2020-09-03 10:00:00 15.3 7 Nordeste 13 Nordeste 0 946.7 -- 72
2020-09-03 09:00:00 12.5 7 Nordeste 14 Nordeste 0 946.3 -- 80
2020-09-03 08:00:00 11.6 4 Nordeste 9 Norte 0 945.7 -- 80
2020-09-03 07:00:00 12 5 Norte 11 Norte 0 945.3 -- 76
2020-09-03 06:00:00 12.8 3 Nordeste 8 Nordeste 0 945.2 -- 69
2020-09-03 05:00:00 13.6 4 Norte 7 Norte 0 945.1 -- 60
2020-09-03 04:00:00 14.6 5 Nordeste 8 Nordeste 0 944.9 -- 52
2020-09-03 03:00:00 15.7 4 Noroeste 6 Norte 0 944.6 -- 47
2020-09-03 02:00:00 16.9 2 Nordeste 9 Este 0 944.3 -- 45
2020-09-03 01:00:00 18.4 3 Noroeste 4 Noroeste 0 944 -- 41
2020-09-03 00:00:00 19.6 3 Nordeste 4 Nordeste 0 943.8 -- 38
2020-09-02 23:00:00 21.1 3 Norte 6 Norte 0 943.5 -- 35
2020-09-02 22:00:00 22.8 3 Nordeste 6 Norte 0 943.1 -- 31
2020-09-02 21:00:00 25 5 Norte 12 Norte 0 942.6 -- 27
2020-09-02 20:00:00 26.9 6 Nordeste 28 Norte 0 942.1 -- 25
2020-09-02 19:00:00 28.8 5 Este 13 Sudeste 0 941.8 -- 25
2020-09-02 18:00:00 29.2 6 Sudoeste 21 Nordeste 0 941.8 -- 21
2020-09-02 17:00:00 28.7 6 Este 19 Norte 0 941.8 -- 24
2020-09-02 16:00:00 28.1 7 Norte 17 Norte 0 942.1 -- 25
2020-09-02 15:00:00 27.3 6 Sudeste 21 Este 0 942.6 -- 29
2020-09-02 14:00:00 25 11 Nordeste 23 Nordeste 0 942.6 -- 36
2020-09-02 13:00:00 22.8 9 Nordeste 20 Nordeste 0 943.1 -- 44
2020-09-02 12:00:00 20.6 13 Nordeste 23 Norte 0 943.4 -- 47
2020-09-02 11:00:00 17.9 13 Nordeste 23 Nordeste 0 943.2 -- 58
2020-09-02 10:00:00 14.9 11 Nordeste 19 Nordeste 0 943 -- 71
2020-09-02 09:00:00 12.8 10 Nordeste 17 Nordeste 0 942.5 -- 79
2020-09-02 08:00:00 11.7 6 Norte 12 Norte 0 942.5 -- 82
2020-09-02 07:00:00 12.2 5 Nordeste 15 Norte 0 942 -- 80
2020-09-02 06:00:00 12.8 4 Nordeste 14 Nordeste 0 941.5 -- 77
2020-09-02 05:00:00 13.4 8 Nordeste 18 Nordeste 0 941.2 -- 75
2020-09-02 04:00:00 14 10 Norte 18 Nordeste 0 941.2 -- 72
2020-09-02 03:00:00 15 11 Nordeste 21 Nordeste 0 941.3 -- 68
2020-09-02 02:00:00 15.7 13 Nordeste 27 Nordeste 0 941.2 -- 64
2020-09-02 01:00:00 16.7 15 Nordeste 27 Norte 0 940.7 -- 59
2020-09-02 00:00:00 18 12 Nordeste 24 Nordeste 0 939.8 -- 55
2020-09-01 23:00:00 20.2 4 Norte 10 Nordeste 0 938.7 -- 34
2020-09-01 22:00:00 21.9 4 Norte 8 Nordeste 0 938.2 -- 33
2020-09-01 21:00:00 24.4 5 Nordeste 12 Nordeste 0 937.6 -- 25
2020-09-01 20:00:00 26.2 9 Nordeste 16 Nordeste 0 937.4 -- 21
2020-09-01 19:00:00 27.9 10 Este 17 Norte 0 937.2 -- 19
2020-09-01 18:00:00 28.9 7 Sur 17 Sudeste 0 937.1 -- 15
2020-09-01 17:00:00 29 7 Este 16 Sudeste 0 937.4 -- 15
2020-09-01 16:00:00 28 9 Sudeste 20 Sudeste 0 938 -- 18
2020-09-01 15:00:00 27.4 6 Sudeste 15 Sudoeste 0 938.6 -- 19
2020-09-01 14:00:00 26.1 8 Sudeste 13 Sudeste 0 939.1 -- 23
2020-09-01 13:00:00 24.3 4 Este 12 Nordeste 0 939.7 -- 27
2020-09-01 12:00:00 21.7 6 Este 13 Este 0 940.2 -- 32
2020-09-01 11:00:00 19.1 7 Este 15 Nordeste 0 940.4 -- 44
2020-09-01 10:00:00 16.5 7 Nordeste 15 Norte 0 940 -- 56
2020-09-01 09:00:00 14.7 6 Nordeste 11 Nordeste 0 939.9 -- 61
2020-09-01 08:00:00 14.2 3 Norte 6 Norte 0 940.2 -- 46
2020-09-01 07:00:00 14.5 4 Norte 10 Norte 0 940.1 -- 44
2020-09-01 06:00:00 14.8 0 Calma 7 Nordeste 0 939.9 -- 45
2020-09-01 05:00:00 15.1 3 Noroeste 6 Norte 0 940.6 -- 45
2020-09-01 04:00:00 15.3 0 Calma 8 Nordeste 0 941.1 -- 48
2020-09-01 03:00:00 15.5 4 Nordeste 7 Nordeste 0 941 -- 56
2020-09-01 02:00:00 16.1 3 Sur 7 Sur 0 941.2 -- 43
2020-09-01 01:00:00 16.5 4 Sudeste 5 Este 0 941.3 -- 42
2020-09-01 00:00:00 18 3 Este 13 Nordeste 0 941.5 -- 31
2020-08-31 23:00:00 19.4 4 Oeste 6 Nordeste 0 941.4 -- 27
2020-08-31 22:00:00 20.3 5 Nordeste 8 Nordeste 0 941.4 -- 26
2020-08-31 21:00:00 22.7 0 Calma 7 Este 0 941.1 -- 26
2020-08-31 20:00:00 24.1 6 Este 14 Sudeste 0 941 -- 25
2020-08-31 19:00:00 25.7 9 Sudeste 15 Sudeste 0 941.1 -- 22
2020-08-31 18:00:00 25.9 7 Este 19 Sudeste 0 941.6 -- 21
2020-08-31 17:00:00 24.8 8 Norte 18 Nordeste 0 942.3 -- 22
2020-08-31 16:00:00 24.7 6 Norte 15 Norte 0 942.8 -- 24
2020-08-31 15:00:00 23.4 4 Sudoeste 14 Sudoeste 0 943.6 -- 26
2020-08-31 14:00:00 21.4 8 Sudeste 15 Nordeste 0 944.4 -- 32
2020-08-31 13:00:00 19.7 6 Norte 14 Nordeste 0 944.9 -- 38
2020-08-31 12:00:00 17.2 6 Nordeste 14 Nordeste 0 945.2 -- 48
2020-08-31 11:00:00 14.3 8 Nordeste 17 Nordeste 0 945.3 -- 58
2020-08-31 10:00:00 11.2 9 Nordeste 19 Nordeste 0 945.2 -- 73
2020-08-31 09:00:00 8.5 9 Nordeste 15 Nordeste 0 945.2 -- 83
2020-08-31 08:00:00 7.8 7 Norte 15 Norte 0 945.1 -- 84
2020-08-31 07:00:00 7.7 6 Norte 11 Nordeste 0 944.4 -- 83
2020-08-31 06:00:00 8.1 6 Nordeste 12 Nordeste 0 944.2 -- 80
2020-08-31 05:00:00 9.1 6 Norte 12 Nordeste 0 944.5 -- 75
2020-08-31 04:00:00 10.4 4 Norte 8 Nordeste 0 944.7 -- 67
2020-08-31 03:00:00 11.6 4 Norte 10 Nordeste 0 944.6 -- 66
2020-08-31 02:00:00 12.5 6 Este 13 Este 0 944.5 -- 60
2020-08-31 01:00:00 13.2 4 Este 16 Este 0 944.4 -- 53
2020-08-31 00:00:00 14 8 Este 19 Este 0 943.7 -- 46
2020-08-30 23:00:00 15.5 0 Calma 5 Nordeste 0 943.1 -- 40
2020-08-30 22:00:00 16.9 3 Norte 9 Este 0 942.6 -- 37
2020-08-30 21:00:00 18.6 5 Este 12 Norte 0 941.9 -- 35
2020-08-30 20:00:00 20.1 6 Nordeste 21 Nordeste 0 941.4 -- 29
2020-08-30 19:00:00 21.8 7 Nordeste 20 Norte 0 941.3 -- 28
2020-08-30 18:00:00 22.3 9 Nordeste 21 Nordeste 0 941.2 -- 28
2020-08-30 17:00:00 22.4 10 Este 19 Este 0 941.2 -- 31
2020-08-30 16:00:00 21.2 10 Este 23 Este 0 941.6 -- 35
2020-08-30 15:00:00 20.9 10 Nordeste 22 Nordeste 0 941.9 -- 35
2020-08-30 14:00:00 20.1 7 Este 19 Este 0 942 -- 36
2020-08-30 13:00:00 18.5 11 Nordeste 24 Nordeste 0 942.3 -- 41
2020-08-30 12:00:00 17.6 11 Este 19 Este 0 942.4 -- 46
2020-08-30 11:00:00 15.1 8 Nordeste 17 Nordeste 0 942.1 -- 55
2020-08-30 10:00:00 13.1 4 Nordeste 8 Este 0 941.8 -- 61
2020-08-30 09:00:00 10.3 3 Nordeste 5 Nordeste 0 941.6 -- 72
2020-08-30 08:00:00 9.2 2 Norte 4 Nordeste 0 941.1 -- 73
2020-08-30 07:00:00 9.3 3 Nordeste 4 Norte 0 940.8 -- 72
2020-08-30 06:00:00 9.8 3 Nordeste 5 Norte 0 940.6 -- 70
2020-08-30 05:00:00 10.1 3 Noroeste 6 Norte 0 940.7 -- 67
2020-08-30 04:00:00 10.8 3 Noroeste 8 Nordeste 0 940.6 -- 67
2020-08-30 03:00:00 11.7 5 Nordeste 9 Nordeste 0 940.6 -- 65
2020-08-30 02:00:00 12.4 5 Este 14 Nordeste 0 940.8 -- 61
2020-08-30 01:00:00 13.1 9 Nordeste 18 Nordeste 0 940.5 -- 60
2020-08-30 00:00:00 14.1 6 Nordeste 24 Nordeste 0 940.1 -- 55
2020-08-29 23:00:00 15.2 12 Nordeste 30 Norte 0 939.4 -- 51
2020-08-29 22:00:00 16.6 12 Nordeste 35 Norte 0 938.5 -- 47
2020-08-29 21:00:00 18.1 19 Norte 35 Norte 0 937.5 -- 43
2020-08-29 20:00:00 19.6 18 Norte 37 Nordeste 0 936.8 -- 40
2020-08-29 19:00:00 21.9 26 Norte 39 Norte 0 936.4 -- 34
2020-08-29 18:00:00 22.4 17 Norte 28 Norte 0 935.8 -- 31
2020-08-29 17:00:00 21.6 17 Norte 32 Norte 0 935.9 -- 34
2020-08-29 16:00:00 21 19 Nordeste 37 Norte 0 936.3 -- 36
2020-08-29 15:00:00 21.8 21 Norte 36 Norte 0 936.5 -- 32
2020-08-29 14:00:00 20.5 17 Norte 37 Norte 0 936.4 -- 35
2020-08-29 13:00:00 20.9 20 Norte 33 Norte 0 936.6 -- 35
2020-08-29 12:00:00 19.2 16 Norte 35 Norte 0 936.6 -- 38
2020-08-29 11:00:00 17.2 8 Norte 21 Norte 0 936.5 -- 46
2020-08-29 10:00:00 13.1 4 Oeste 10 Oeste 0 936.5 -- 60
2020-08-29 09:00:00 10.8 3 Oeste 14 Oeste 0 936.2 -- 67
2020-08-29 08:00:00 10.7 5 Oeste 12 Oeste 0 936.1 -- 67
2020-08-29 07:00:00 10.9 3 Noroeste 6 Oeste 0 935.9 -- 67
2020-08-29 06:00:00 11.2 2 Noroeste 6 Norte 0 935.7 -- 65
2020-08-29 05:00:00 11.6 2 Noroeste 9 Noroeste 0 935.9 -- 63
2020-08-29 04:00:00 12.2 4 Norte 13 Norte 0 936.1 -- 61
2020-08-29 03:00:00 13.1 9 Norte 20 Noroeste 0 936.6 -- 58
2020-08-29 02:00:00 14.1 11 Noroeste 21 Norte 0 936.8 -- 54
2020-08-29 01:00:00 14.6 8 Norte 21 Norte 0 936.9 -- 51
2020-08-29 00:00:00 16.2 14 Norte 26 Norte 0 936.6 -- 44
2020-08-28 23:00:00 17.5 13 Norte 24 Norte 0 936.2 -- 42
2020-08-28 22:00:00 18.9 15 Norte 29 Norte 0 935.7 -- 37
2020-08-28 21:00:00 20.5 14 Norte 28 Norte 0 935.1 -- 34
2020-08-28 20:00:00 23.3 10 Noroeste 31 Noroeste 0 934.4 -- 30
2020-08-28 19:00:00 26 9 Noroeste 28 Oeste 0 934 -- 25
2020-08-28 18:00:00 26.7 12 Oeste 28 Sudoeste 0 934.1 -- 20
2020-08-28 17:00:00 27.8 10 Oeste 27 Oeste 0 934.4 -- 17
2020-08-28 16:00:00 27.8 9 Oeste 29 Sudoeste 0 934.8 -- 18
2020-08-28 15:00:00 26.7 10 Oeste 26 Oeste 0 935.4 -- 25
2020-08-28 14:00:00 25.9 8 Oeste 24 Noroeste 0 936.2 -- 28
2020-08-28 13:00:00 24.9 7 Noroeste 21 Sudoeste 0 937.1 -- 31
2020-08-28 12:00:00 23.3 9 Noroeste 20 Noroeste 0 937.5 -- 45
2020-08-28 11:00:00 21.6 6 Oeste 18 Oeste 0 937.8 -- 56
2020-08-28 10:00:00 19.7 6 Oeste 16 Oeste 0 938 -- 68
2020-08-28 09:00:00 17.9 5 Oeste 15 Oeste 0 938.4 -- 79
2020-08-28 08:00:00 17.9 5 Oeste 17 Oeste 0 938.4 -- 78
2020-08-28 07:00:00 18.4 9 Oeste 17 Oeste 0 938.4 -- 75
2020-08-28 06:00:00 19.2 6 Sudoeste 14 Oeste 0 938.5 -- 71
2020-08-28 05:00:00 20.1 3 Noroeste 12 Oeste 0 939.1 -- 64
2020-08-28 04:00:00 20.6 0 Calma 6 Norte 0 939.6 -- 60
2020-08-28 03:00:00 21.5 3 Norte 12 Oeste 0 940.2 -- 57
2020-08-28 02:00:00 22.7 7 Oeste 15 Oeste 0 940.4 -- 54
2020-08-28 01:00:00 24.1 5 Noroeste 12 Oeste 0 940.5 -- 51
2020-08-28 00:00:00 25 4 Noroeste 12 Noroeste 0 940.7 -- 51
2020-08-27 23:00:00 26.1 4 Noroeste 21 Norte 0 940.9 -- 49
2020-08-27 22:00:00 27.6 10 Noroeste 19 Norte 0 940.7 -- 42
2020-08-27 21:00:00 30 6 Noroeste 17 Norte 0 940.1 -- 32
2020-08-27 20:00:00 32.3 6 Noroeste 22 Oeste 0 940 -- 24
2020-08-27 19:00:00 34.2 6 Noroeste 22 Oeste 0 940.1 -- 20
2020-08-27 18:00:00 34.9 8 Oeste 19 Sudoeste 0 940.5 -- 18
2020-08-27 17:00:00 34.9 7 Oeste 24 Oeste 0 940.9 -- 19
2020-08-27 16:00:00 34.2 5 Oeste 36 Sudeste 0 941.6 -- 25
2020-08-27 15:00:00 32.6 8 Sudeste 14 Sur 0 942.6 -- 36
2020-08-27 14:00:00 30.5 4 Sudoeste 11 Sudoeste 0 943.5 -- 41
2020-08-27 13:00:00 28.1 5 Oeste 11 Sudeste 0 944.3 -- 48
2020-08-27 12:00:00 27.3 6 Sudeste 14 Sudeste 0 944.8 -- 53
2020-08-27 11:00:00 24.6 8 Nordeste 18 Nordeste 0 945.1 -- 62
2020-08-27 10:00:00 22.1 4 Nordeste 7 Norte 0 944.9 -- 64
2020-08-27 09:00:00 19.6 3 Nordeste 6 Sudeste 0 944.8 -- 70
2020-08-27 08:00:00 18.3 2 Norte 5 Oeste 0 944.6 -- 71
2020-08-27 07:00:00 18.9 0 Calma 3 Nordeste 0 944.4 -- 70
2020-08-27 06:00:00 19.8 0 Calma 8 Nordeste 0 944.3 -- 67
2020-08-27 05:00:00 21.3 2 Noroeste 5 Oeste 0 944.4 -- 61
2020-08-27 04:00:00 21.5 4 Oeste 7 Noroeste 0 944.7 -- 59
2020-08-27 03:00:00 22.7 2 Sudoeste 6 Este 0 944.7 -- 56
2020-08-27 02:00:00 23.5 3 Oeste 8 Norte 0 944.9 -- 52
2020-08-27 01:00:00 25 4 Noroeste 16 Noroeste 0 944.6 -- 46
2020-08-27 00:00:00 26.2 4 Noroeste 13 Noroeste 0 944.4 -- 43
2020-08-26 23:00:00 27.2 4 Noroeste 10 Sudoeste 0 944.4 -- 40
2020-08-26 22:00:00 28.7 3 Oeste 11 Oeste 0 943.7 -- 36
2020-08-26 21:00:00 31 4 Oeste 18 Oeste 0 943.1 -- 26
2020-08-26 20:00:00 33.8 5 Noroeste 15 Noroeste 0 942.9 -- 18
2020-08-26 19:00:00 34.8 7 Noroeste 17 Oeste 0 943 -- 17
2020-08-26 18:00:00 35.1 6 Noroeste 21 Norte 0 943.1 -- 20
2020-08-26 17:00:00 34.4 8 Sudeste 17 Sur 0 943.3 -- 26
2020-08-26 16:00:00 33.4 5 Sudeste 15 Sudeste 0 943.9 -- 27
2020-08-26 15:00:00 32 8 Sudeste 15 Sudeste 0 944.4 -- 33
2020-08-26 14:00:00 29.6 4 Nordeste 16 Nordeste 0 944.9 -- 37
2020-08-26 13:00:00 27.4 5 Nordeste 16 Nordeste 0 945.3 -- 46
2020-08-26 12:00:00 25.3 6 Este 17 Este 0 945.5 -- 51
2020-08-26 11:00:00 22.1 10 Nordeste 21 Norte 0 945.4 -- 61
2020-08-26 10:00:00 19.6 11 Nordeste 18 Nordeste 0 945.1 -- 70
2020-08-26 09:00:00 16.7 6 Norte 13 Nordeste 0 944.7 -- 79
2020-08-26 08:00:00 16 4 Nordeste 17 Norte 0 944.3 -- 78
2020-08-26 07:00:00 16.5 9 Norte 14 Norte 0 944 -- 75
2020-08-26 06:00:00 17.2 4 Norte 10 Norte 0 943.4 -- 70
2020-08-26 05:00:00 18.2 4 Noroeste 9 Norte 0 943.5 -- 65
2020-08-26 04:00:00 19 3 Noroeste 10 Norte 0 943.6 -- 60
2020-08-26 03:00:00 20.6 5 Norte 11 Norte 0 943.8 -- 54
2020-08-26 02:00:00 21.6 3 Norte 12 Este 0 943.6 -- 51
2020-08-26 01:00:00 22.8 4 Nordeste 13 Noroeste 0 943.3 -- 47
2020-08-26 00:00:00 24.4 8 Norte 14 Norte 0 942.8 -- 43
2020-08-25 23:00:00 26.3 4 Noroeste 10 Oeste 0 942.3 -- 37
2020-08-25 22:00:00 27.6 3 Oeste 9 Noroeste 0 941.4 -- 33
2020-08-25 21:00:00 30 4 Noroeste 18 Noroeste 0 940.7 -- 23
2020-08-25 20:00:00 33.1 6 Noroeste 23 Noroeste 0 940.3 -- 13
2020-08-25 19:00:00 34.6 6 Oeste 22 Noroeste 0 940.2 -- 12
2020-08-25 18:00:00 35.1 8 Oeste 21 Sudoeste 0 939.9 -- 15
2020-08-25 17:00:00 34.6 8 Oeste 25 Sudoeste 0 940 -- 17
2020-08-25 16:00:00 34.2 7 Oeste 24 Oeste 0 940.3 -- 18
2020-08-25 15:00:00 33.3 8 Sudoeste 19 Sudoeste 0 940.9 -- 20
2020-08-25 14:00:00 31.6 6 Sudeste 15 Sudeste 0 941.2 -- 28
2020-08-25 13:00:00 29 5 Sudeste 13 Este 0 941.8 -- 36
2020-08-25 12:00:00 25.5 5 Sudeste 9 Sudeste 0 942.1 -- 45
2020-08-25 11:00:00 22.5 3 Sudeste 7 Norte 0 941.8 -- 53
2020-08-25 10:00:00 18.6 2 Norte 7 Norte 0 941.6 -- 65
2020-08-25 09:00:00 16.1 4 Nordeste 6 Nordeste 0 941.4 -- 72
2020-08-25 08:00:00 14.7 2 Nordeste 4 Nordeste 0 941 -- 72
2020-08-25 07:00:00 15.5 3 Norte 4 Oeste 0 940.6 -- 71
2020-08-25 06:00:00 15.7 0 Calma 5 Norte 0 940.5 -- 73
2020-08-25 05:00:00 16.3 2 Este 5 Nordeste 0 940.6 -- 69
2020-08-25 04:00:00 17.4 3 Noroeste 8 Sur 0 940.5 -- 65
2020-08-25 03:00:00 18.3 2 Norte 4 Norte 0 940.7 -- 61
2020-08-25 02:00:00 20.2 0 Calma 6 Sur 0 940.7 -- 54
2020-08-25 01:00:00 21.5 3 Noroeste 9 Oeste 0 940.9 -- 41
2020-08-25 00:00:00 22.4 2 Oeste 5 Este 0 940.8 -- 40
2020-08-24 23:00:00 23.7 4 Este 6 Este 0 940.7 -- 36
2020-08-24 22:00:00 25.7 4 Norte 7 Este 0 940.4 -- 34
2020-08-24 21:00:00 28.1 4 Sur 12 Este 0 940 -- 29
2020-08-24 20:00:00 30.3 4 Este 12 Este 0 940 -- 27
2020-08-24 19:00:00 31.2 7 Este 14 Sudeste 0 940.3 -- 25
2020-08-24 18:00:00 31.4 4 Oeste 18 Este 0 940.8 -- 24
2020-08-24 17:00:00 31.4 5 Sudeste 14 Sudeste 0 941.4 -- 27
2020-08-24 16:00:00 30.3 5 Este 15 Sudeste 0 942 -- 28
2020-08-24 15:00:00 29.1 6 Norte 18 Nordeste 0 942.6 -- 33
2020-08-24 14:00:00 27.4 9 Nordeste 17 Nordeste 0 943.1 -- 37
2020-08-24 13:00:00 25 9 Nordeste 19 Este 0 943.9 -- 44
2020-08-24 12:00:00 22.8 9 Nordeste 19 Nordeste 0 944.4 -- 54
2020-08-24 11:00:00 19.7 11 Nordeste 22 Nordeste 0 944.6 -- 59
2020-08-24 10:00:00 17 10 Nordeste 20 Este 0 944.8 -- 72
2020-08-24 09:00:00 14.6 8 Nordeste 17 Nordeste 0 944.9 -- 82
2020-08-24 08:00:00 13.6 6 Nordeste 14 Norte 0 944.6 -- 85
2020-08-24 07:00:00 14.1 5 Nordeste 17 Norte 0 944.1 -- 84
2020-08-24 06:00:00 14.6 9 Nordeste 20 Nordeste 0 944.6 -- 82
2020-08-24 05:00:00 15.2 10 Norte 19 Norte 0 944.9 -- 80
2020-08-24 04:00:00 16.1 7 Nordeste 17 Nordeste 0 944.7 -- 76
2020-08-24 03:00:00 17.3 5 Nordeste 17 Nordeste 0 944.8 -- 71
2020-08-24 02:00:00 18.4 8 Norte 16 Norte 0 945 -- 62
2020-08-24 01:00:00 19.7 5 Nordeste 10 Nordeste 0 944.4 -- 50
2020-08-24 00:00:00 21.3 3 Este 6 Norte 0 944.4 -- 44
2020-08-23 23:00:00 22.5 4 Norte 6 Norte 0 944.2 -- 41
2020-08-23 22:00:00 24.3 3 Norte 10 Nordeste 0 944.1 -- 36
2020-08-23 21:00:00 26.5 8 Norte 15 Nordeste 0 943.8 -- 31
2020-08-23 20:00:00 28.6 8 Nordeste 19 Este 0 943.9 -- 25
2020-08-23 19:00:00 30.1 10 Norte 21 Norte 0 944.2 -- 21
2020-08-23 18:00:00 30.2 9 Nordeste 21 Nordeste 0 944.4 -- 23
2020-08-23 17:00:00 30 9 Norte 19 Nordeste 0 945 -- 24
2020-08-23 16:00:00 29.2 9 Este 19 Nordeste 0 945.9 -- 29
2020-08-23 15:00:00 27.7 9 Nordeste 20 Nordeste 0 946.5 -- 34
2020-08-23 14:00:00 26.2 12 Nordeste 22 Nordeste 0 947 -- 38
2020-08-23 13:00:00 24.2 11 Nordeste 24 Nordeste 0 947.7 -- 47
2020-08-23 12:00:00 21.8 10 Nordeste 20 Nordeste 0 948.2 -- 60
2020-08-23 11:00:00 19.3 11 Nordeste 24 Nordeste 0 948.5 -- 69
2020-08-23 10:00:00 16.6 13 Nordeste 26 Norte 0 948.5 -- 80
2020-08-23 09:00:00 14.4 9 Norte 17 Norte 0 948.3 -- 90
2020-08-23 08:00:00 12.7 5 Norte 10 Nordeste 0 947.8 -- 92
2020-08-23 07:00:00 13 4 Norte 12 Nordeste 0 947.6 -- 90
2020-08-23 06:00:00 13.6 5 Nordeste 9 Nordeste 0 947.5 -- 90
2020-08-23 05:00:00 14.4 4 Nordeste 10 Nordeste 0 947.8 -- 87
2020-08-23 04:00:00 15 5 Nordeste 13 Norte 0 947.8 -- 84
2020-08-23 03:00:00 15.7 6 Nordeste 18 Nordeste 0 947.8 -- 73
2020-08-23 02:00:00 17.5 5 Nordeste 16 Norte 0 947.9 -- 54
2020-08-23 01:00:00 19.8 4 Norte 8 Oeste 0 947.4 -- 43
2020-08-23 00:00:00 20.2 3 Oeste 11 Nordeste 0 947.5 -- 39
2020-08-22 23:00:00 22 4 Oeste 11 Oeste 0 947.2 -- 32
2020-08-22 22:00:00 23.2 2 Noroeste 8 Noroeste 0 946.7 -- 29
2020-08-22 21:00:00 25.7 3 Noroeste 10 Sudeste 0 946.1 -- 28
2020-08-22 20:00:00 28 8 Sudeste 13 Sudeste 0 945.8 -- 28
2020-08-22 19:00:00 28.8 8 Este 16 Este 0 945.8 -- 29
2020-08-22 18:00:00 28.7 10 Sudeste 16 Sudeste 0 946 -- 29
2020-08-22 17:00:00 28.2 9 Sudeste 17 Sudeste 0 946.7 -- 31
2020-08-22 16:00:00 27.4 8 Sudeste 15 Sudeste 0 947.3 -- 35
2020-08-22 15:00:00 26 7 Sudeste 16 Este 0 947.9 -- 42
2020-08-22 14:00:00 24.6 8 Sur 15 Este 0 948.1 -- 43
2020-08-22 13:00:00 23.2 5 Sur 11 Norte 0 948.4 -- 51
2020-08-22 12:00:00 21.3 5 Este 14 Este 0 948.6 -- 57
2020-08-22 11:00:00 19.3 5 Nordeste 11 Este 0 948.5 -- 67
2020-08-22 10:00:00 16.3 3 Nordeste 6 Este 0 -- -- 80
2020-08-22 09:00:00 13.6 3 Norte 5 Nordeste 0 947.8 -- 91
2020-08-22 08:00:00 12.3 2 Este 6 Norte 0 947.4 -- 90
2020-08-22 07:00:00 13.2 2 Este 4 Norte 0 946.7 -- 87
2020-08-22 06:00:00 14 0 Calma 5 Norte 0 946.4 -- 85
2020-08-22 05:00:00 15 4 Oeste 6 Noroeste 0 946.1 -- 81
2020-08-22 04:00:00 15.2 0 Calma 6 Norte 0 945.9 -- 81
2020-08-22 03:00:00 16.4 0 Calma 9 Oeste 0 945.7 -- 77
2020-08-22 02:00:00 17.5 6 Oeste 13 Oeste 0 945.7 -- 71
2020-08-22 01:00:00 18.2 4 Oeste 13 Noroeste 0 945.3 -- 68
2020-08-22 00:00:00 19 4 Oeste 12 Norte 0 944.8 -- 63
2020-08-21 23:00:00 20.1 3 Oeste 11 Norte 0 944.2 -- 52
2020-08-21 22:00:00 21.7 5 Noroeste 16 Noroeste 0 943.6 -- 48
2020-08-21 21:00:00 23.4 6 Oeste 24 Oeste 0 942.8 -- 40
2020-08-21 20:00:00 25.2 10 Oeste 32 Noroeste 0 942.3 -- 32
2020-08-21 19:00:00 26.2 9 Oeste 26 Oeste 0 942 -- 28
2020-08-21 18:00:00 26.3 10 Oeste 30 Oeste 0 941.6 -- 22
2020-08-21 17:00:00 26.2 13 Oeste 33 Oeste 0 941.4 -- 37
2020-08-21 16:00:00 24.8 12 Oeste 28 Oeste 0 941.7 -- 50
2020-08-21 15:00:00 22.7 8 Oeste 21 Oeste 0 942 -- 64
2020-08-21 14:00:00 21.1 6 Oeste 19 Oeste 0 941.7 -- 72
2020-08-21 13:00:00 20.7 6 Oeste 17 Noroeste 0 941.4 -- 75
2020-08-21 12:00:00 20.1 6 Oeste 16 Norte 0 941 -- 80
2020-08-21 11:00:00 19.2 5 Noroeste 12 Noroeste 0 940.4 -- 84
2020-08-21 10:00:00 18.2 5 Oeste 12 Oeste 0 940 -- 88
2020-08-21 09:00:00 17.7 5 Oeste 14 Oeste 0 939.5 -- 89
2020-08-21 08:00:00 17.9 4 Oeste 12 Oeste 0 938.8 -- 90
2020-08-21 07:00:00 18.1 3 Noroeste 10 Oeste 0 938.3 -- 90
2020-08-21 06:00:00 18.3 5 Oeste 13 Oeste 0.2 937.9 -- 90
2020-08-21 05:00:00 18.4 7 Oeste 17 Sur 0 938 -- 89
2020-08-21 04:00:00 18.5 6 Sudoeste 17 Sudoeste 0 937.7 -- 91
2020-08-21 03:00:00 18.8 3 Oeste 14 Oeste 0 937.4 -- 90
2020-08-21 02:00:00 18.8 3 Oeste 10 Oeste 0 937.5 -- 89
2020-08-21 01:00:00 18.9 3 Oeste 9 Sudoeste 0 937.4 -- 90
2020-08-21 00:00:00 18.6 2 Sudoeste 13 Sur 2.4 937.1 -- 92